createdAt,value
2023-04-05T00:01:12.482Z,17.10
2023-04-05T00:03:42.871Z,16.90
2023-04-05T00:06:13.306Z,17.30
2023-04-05T00:08:41.289Z,16.20
2023-04-05T00:11:09.590Z,16.90
2023-04-05T00:13:41.186Z,18.50
2023-04-05T00:16:09.144Z,19.30
2023-04-05T00:18:38.638Z,18.50
2023-04-05T00:21:06.811Z,17.00
2023-04-05T00:23:38.727Z,19.00
2023-04-05T00:26:07.630Z,17.70
2023-04-05T00:28:36.152Z,18.00
2023-04-05T00:31:05.918Z,20.10
2023-04-05T00:33:33.761Z,18.10
2023-04-05T00:36:16.349Z,18.00
2023-04-05T00:38:45.956Z,18.80
2023-04-05T00:41:14.534Z,17.70
2023-04-05T00:43:49.569Z,18.90
2023-04-05T00:46:18.258Z,17.10
2023-04-05T00:48:47.198Z,18.00
2023-04-05T00:51:15.903Z,18.10
2023-04-05T00:53:51.842Z,19.90
2023-04-05T00:56:21.968Z,18.60
2023-04-05T00:58:52.220Z,17.90
2023-04-05T01:01:26.332Z,18.50
2023-04-05T01:04:03.373Z,17.20
2023-04-05T01:06:44.723Z,18.40
2023-04-05T01:09:32.898Z,17.50
2023-04-05T01:12:06.922Z,18.60
2023-04-05T01:14:46.580Z,18.70
2023-04-05T01:17:16.375Z,16.70
2023-04-05T01:19:48.157Z,17.60
2023-04-05T01:22:38.279Z,17.80
2023-04-05T01:25:30.975Z,16.40
2023-04-05T01:27:58.844Z,17.00
2023-04-05T01:30:32.272Z,19.00
2023-04-05T01:33:35.166Z,19.60
2023-04-05T01:36:34.959Z,18.20
2023-04-05T01:39:05.434Z,17.80
2023-04-05T01:41:33.877Z,17.90
2023-04-05T01:44:01.749Z,17.20
2023-04-05T01:46:29.739Z,20.40
2023-04-05T01:48:58.154Z,18.90
2023-04-05T01:51:26.605Z,17.50
2023-04-05T01:53:54.442Z,19.10
2023-04-05T01:56:29.352Z,18.20
2023-04-05T01:58:57.687Z,19.60
2023-04-05T02:01:25.607Z,21.40
2023-04-05T02:03:53.726Z,20.70
2023-04-05T02:06:22.760Z,20.60
2023-04-05T02:08:50.639Z,20.60
2023-04-05T02:11:22.403Z,19.40
2023-04-05T02:13:50.261Z,17.80
2023-04-05T02:16:18.616Z,18.50
2023-04-05T02:18:51.335Z,18.90
2023-04-05T02:21:19.077Z,17.10
2023-04-05T02:23:46.850Z,16.80
2023-04-05T02:26:14.672Z,18.20
2023-04-05T02:28:42.467Z,16.90
2023-04-05T02:31:11.897Z,18.30
2023-04-05T02:33:43.056Z,19.20
2023-04-05T02:36:13.676Z,19.00
2023-04-05T02:38:41.658Z,19.60
2023-04-05T02:41:14.118Z,17.00
2023-04-05T02:43:42.076Z,17.80
2023-04-05T02:46:10.045Z,18.20
2023-04-05T02:48:41.157Z,18.70
2023-04-05T02:51:09.608Z,17.90
2023-04-05T02:53:37.605Z,18.40
2023-04-05T02:56:08.038Z,18.10
2023-04-05T02:58:38.185Z,17.10
2023-04-05T03:01:07.103Z,18.50
2023-04-05T03:03:35.024Z,17.80
2023-04-05T03:06:10.438Z,16.10
2023-04-05T03:08:46.906Z,16.70
2023-04-05T03:11:16.474Z,16.10
2023-04-05T03:13:47.332Z,15.90
2023-04-05T03:16:34.601Z,16.20
2023-04-05T03:19:06.737Z,17.10
2023-04-05T03:21:39.754Z,17.30
2023-04-05T03:24:11.982Z,19.50
2023-04-05T03:26:45.316Z,17.60
2023-04-05T03:29:13.896Z,18.10
2023-04-05T03:31:42.258Z,17.60
2023-04-05T03:34:10.408Z,16.80
2023-04-05T03:36:47.329Z,18.00
2023-04-05T03:39:35.230Z,16.50
2023-04-05T03:42:03.496Z,16.60
2023-04-05T03:44:31.467Z,17.90
2023-04-05T03:46:59.426Z,18.70
2023-04-05T03:49:27.556Z,21.80
2023-04-05T03:51:56.570Z,19.70
2023-04-05T03:54:24.442Z,21.00
2023-04-05T03:56:56.696Z,18.80
2023-04-05T03:59:30.778Z,16.80
2023-04-05T04:02:00.428Z,17.50
2023-04-05T04:04:29.855Z,17.50
2023-04-05T04:06:58.180Z,16.60
2023-04-05T04:09:30.760Z,18.80
2023-04-05T04:12:06.089Z,18.20
2023-04-05T04:14:35.925Z,17.00
2023-04-05T04:17:30.047Z,18.10
2023-04-05T04:20:24.530Z,18.30
2023-04-05T04:23:10.897Z,19.30
2023-04-05T04:25:57.026Z,19.20
2023-04-05T04:28:57.102Z,19.50
2023-04-05T04:31:48.586Z,19.40
2023-04-05T04:34:44.657Z,16.80
2023-04-05T04:37:31.291Z,18.00
2023-04-05T04:40:18.014Z,18.60
2023-04-05T04:43:02.241Z,23.20
2023-04-05T04:45:52.256Z,24.10
2023-04-05T04:48:27.521Z,25.80
2023-04-05T04:51:04.293Z,22.70
2023-04-05T04:53:35.499Z,22.80
2023-04-05T04:56:07.874Z,24.90
2023-04-05T04:58:36.067Z,40.00
2023-04-05T05:01:10.287Z,25.40
2023-04-05T05:03:39.063Z,21.40
2023-04-05T05:06:07.255Z,22.10
2023-04-05T05:08:37.460Z,29.40
2023-04-05T05:11:07.596Z,27.60
2023-04-05T05:13:42.742Z,37.90
2023-04-05T05:16:14.534Z,32.70
2023-04-05T05:18:42.988Z,25.40
2023-04-05T05:21:10.745Z,23.30
2023-04-05T05:23:38.566Z,19.20
2023-04-05T05:26:06.745Z,19.10
2023-04-05T05:28:34.644Z,21.30
2023-04-05T05:31:04.131Z,19.90
2023-04-05T05:33:35.728Z,21.30
2023-04-05T05:36:04.231Z,15.50
2023-04-05T05:38:32.172Z,19.60
2023-04-05T05:41:03.870Z,19.10
2023-04-05T05:43:31.597Z,18.70
2023-04-05T05:46:02.789Z,20.60
2023-04-05T05:48:31.078Z,20.20
2023-04-05T05:51:03.092Z,20.80
2023-04-05T05:53:30.886Z,21.10
2023-04-05T05:56:00.000Z,25.30
2023-04-05T05:58:27.830Z,25.20
2023-04-05T06:00:56.626Z,24.00
2023-04-05T06:03:26.129Z,24.40
2023-04-05T06:05:58.440Z,28.70
2023-04-05T06:08:30.261Z,28.10
2023-04-05T06:10:58.501Z,27.10
2023-04-05T06:13:26.287Z,24.30
2023-04-05T06:15:54.208Z,22.10
2023-04-05T06:18:22.067Z,20.80
2023-04-05T06:20:50.015Z,19.90
2023-04-05T06:23:17.889Z,22.20
2023-04-05T06:25:45.774Z,19.30
2023-04-05T06:28:13.930Z,20.20
2023-04-05T06:30:42.251Z,18.90
2023-04-05T06:33:10.310Z,25.90
2023-04-05T06:35:38.158Z,22.60
2023-04-05T06:38:06.206Z,22.00
2023-04-05T06:40:34.113Z,20.20
2023-04-05T06:43:01.933Z,21.90
2023-04-05T06:45:30.205Z,19.50
2023-04-05T06:47:58.210Z,20.80
2023-04-05T06:50:26.992Z,22.20
2023-04-05T06:53:01.123Z,23.10
2023-04-05T06:55:31.160Z,24.30
2023-04-05T06:57:58.990Z,31.60
2023-04-05T07:00:26.939Z,35.40
2023-04-05T07:02:54.709Z,30.40
2023-04-05T07:05:22.557Z,29.10
2023-04-05T07:07:50.596Z,22.10
2023-04-05T07:10:18.777Z,25.30
2023-04-05T07:12:46.936Z,24.90
2023-04-05T07:15:14.770Z,26.50
2023-04-05T07:17:42.723Z,19.70
2023-04-05T07:20:11.669Z,22.60
2023-04-05T07:22:39.671Z,24.80
2023-04-05T07:25:09.613Z,23.40
2023-04-05T07:27:39.866Z,20.90
2023-04-05T07:30:08.618Z,20.40
2023-04-05T07:32:36.494Z,19.70
2023-04-05T07:35:04.919Z,22.10
2023-04-05T07:37:32.913Z,20.10
2023-04-05T07:40:00.871Z,17.60
2023-04-05T07:42:29.474Z,19.30
2023-04-05T07:44:58.347Z,22.50
2023-04-05T07:47:26.136Z,21.80
2023-04-05T07:49:54.121Z,20.70
2023-04-05T07:52:22.510Z,22.30
2023-04-05T07:54:52.425Z,21.80
2023-04-05T07:57:21.619Z,20.50
2023-04-05T07:59:55.153Z,17.80
2023-04-05T08:02:24.978Z,18.50
2023-04-05T08:04:54.510Z,20.50
2023-04-05T08:07:23.390Z,19.40
2023-04-05T08:09:51.510Z,17.70
2023-04-05T08:12:26.804Z,18.70
2023-04-05T08:15:01.757Z,16.80
2023-04-05T08:17:33.865Z,16.00
2023-04-05T08:20:03.753Z,16.70
2023-04-05T08:22:32.002Z,18.30
2023-04-05T08:25:00.555Z,16.80
2023-04-05T08:27:35.936Z,18.60
2023-04-05T08:30:12.008Z,18.50
2023-04-05T08:32:41.303Z,16.70
2023-04-05T08:35:16.945Z,17.00
2023-04-05T08:37:47.542Z,16.20
2023-04-05T08:40:15.419Z,16.10
2023-04-05T08:42:52.775Z,14.40
2023-04-05T08:45:23.176Z,15.50
2023-04-05T08:47:53.799Z,14.70
2023-04-05T08:50:24.644Z,11.90
2023-04-05T08:52:53.164Z,12.50
2023-04-05T08:55:21.774Z,12.30
2023-04-05T08:57:58.312Z,10.80
2023-04-05T09:00:28.060Z,10.10
2023-04-05T09:02:58.568Z,7.70
2023-04-05T09:05:27.204Z,8.00
2023-04-05T09:08:17.726Z,9.10
2023-04-05T09:10:45.894Z,5.10
2023-04-05T09:13:14.023Z,3.80
2023-04-05T09:15:42.606Z,6.30
2023-04-05T09:18:23.215Z,6.50
2023-04-05T09:21:06.110Z,6.50
2023-04-05T09:23:35.896Z,5.70
2023-04-05T09:26:21.825Z,5.90
2023-04-05T09:28:53.503Z,4.90
2023-04-05T09:31:36.765Z,3.80
2023-04-05T09:34:22.183Z,3.90
2023-04-05T09:36:51.044Z,4.00
2023-04-05T09:39:32.882Z,5.80
2023-04-05T09:42:07.048Z,4.50
2023-04-05T09:44:53.379Z,4.70
2023-04-05T09:47:27.679Z,3.90
2023-04-05T09:49:59.842Z,4.40
2023-04-05T09:52:32.066Z,3.50
2023-04-05T09:55:03.497Z,2.80
2023-04-05T09:57:35.437Z,2.70
2023-04-05T10:00:10.541Z,2.20
2023-04-05T10:02:43.592Z,1.50
2023-04-05T10:05:15.936Z,2.00
2023-04-05T10:07:49.399Z,3.20
2023-04-05T10:10:18.268Z,2.60
2023-04-05T10:12:48.545Z,1.90
2023-04-05T10:15:18.763Z,3.10
2023-04-05T10:18:01.039Z,3.40
2023-04-05T10:20:33.474Z,3.50
2023-04-05T10:23:10.173Z,3.30
2023-04-05T10:25:53.768Z,3.60
2023-04-05T10:28:37.567Z,3.30
2023-04-05T10:31:34.177Z,3.60
2023-04-05T10:34:16.607Z,3.70
2023-04-05T10:37:03.154Z,3.30
2023-04-05T10:39:46.947Z,3.70
2023-04-05T10:42:24.948Z,6.10
2023-04-05T10:45:00.397Z,15.80
2023-04-05T10:47:29.069Z,4.80
2023-04-05T10:50:03.633Z,3.60
2023-04-05T10:52:34.323Z,5.80
2023-04-05T10:55:03.699Z,3.70
2023-04-05T10:57:32.822Z,3.20
2023-04-05T11:00:01.960Z,3.00
2023-04-05T11:02:31.193Z,3.90
2023-04-05T11:05:24.949Z,4.30
2023-04-05T11:07:56.487Z,4.10
2023-04-05T11:10:24.959Z,4.20
2023-04-05T11:12:53.045Z,4.20
2023-04-05T11:15:30.528Z,3.80
2023-04-05T11:18:22.775Z,4.10
2023-04-05T11:21:07.130Z,4.80
2023-04-05T11:24:08.339Z,3.90
2023-04-05T11:26:48.940Z,4.70
2023-04-05T11:29:16.761Z,3.80
2023-04-05T11:32:06.668Z,4.00
2023-04-05T11:34:37.757Z,3.50
2023-04-05T11:37:16.095Z,4.10
2023-04-05T11:39:44.248Z,4.20
2023-04-05T11:42:12.640Z,3.10
2023-04-05T11:44:48.391Z,4.50
2023-04-05T11:47:18.286Z,5.40
2023-04-05T11:49:50.534Z,3.90
2023-04-05T11:52:20.530Z,3.60
2023-04-05T11:54:49.745Z,3.90
2023-04-05T11:57:23.232Z,4.10
2023-04-05T11:59:53.574Z,4.40
2023-04-05T12:02:22.108Z,3.50
2023-04-05T12:04:57.849Z,3.90
2023-04-05T12:07:36.865Z,3.70
2023-04-05T12:10:13.890Z,3.70
2023-04-05T12:12:43.870Z,4.00
2023-04-05T12:15:19.173Z,3.80
2023-04-05T12:17:52.600Z,4.90
2023-04-05T12:20:24.029Z,4.80
2023-04-05T12:22:54.567Z,3.60
2023-04-05T12:25:27.631Z,4.00
2023-04-05T12:27:56.499Z,4.30
2023-04-05T12:30:24.900Z,3.60
2023-04-05T12:32:55.210Z,4.30
2023-04-05T12:35:34.834Z,3.30
2023-04-05T12:38:06.081Z,4.20
2023-04-05T12:40:35.185Z,3.70
2023-04-05T12:43:04.414Z,3.10
2023-04-05T12:45:40.545Z,3.50
2023-04-05T12:48:12.229Z,3.80
2023-04-05T12:50:48.738Z,3.60
2023-04-05T12:53:20.655Z,4.10
2023-04-05T12:55:56.983Z,3.90
2023-04-05T12:58:43.490Z,3.40
2023-04-05T13:01:13.032Z,4.30
2023-04-05T13:03:44.271Z,4.60
2023-04-05T13:06:12.481Z,4.70
2023-04-05T13:08:40.508Z,4.50
2023-04-05T13:11:08.496Z,3.00
2023-04-05T13:13:36.295Z,3.70
2023-04-05T13:16:04.304Z,4.40
2023-04-05T13:18:38.766Z,4.20
2023-04-05T13:21:08.519Z,5.10
2023-04-05T13:23:38.010Z,11.20
2023-04-05T13:26:26.194Z,15.60
2023-04-05T13:28:54.341Z,4.60
2023-04-05T13:31:22.120Z,4.50
2023-04-05T13:33:50.264Z,4.40
2023-04-05T13:36:21.991Z,4.00
2023-04-05T13:38:50.040Z,4.10
2023-04-05T13:41:17.789Z,13.30
2023-04-05T13:43:45.677Z,4.70
2023-04-05T13:46:14.044Z,10.90
2023-04-05T13:48:42.063Z,23.40
2023-04-05T13:51:09.841Z,13.50
2023-04-05T13:53:37.734Z,5.50
2023-04-05T13:56:06.557Z,4.40
2023-04-05T13:58:34.352Z,4.40
2023-04-05T14:01:03.299Z,4.40
2023-04-05T14:03:31.173Z,3.90
2023-04-05T14:05:59.194Z,4.20
2023-04-05T14:08:27.263Z,4.10
2023-04-05T14:10:55.521Z,5.80
2023-04-05T14:13:27.094Z,19.50
2023-04-05T14:15:57.445Z,6.20
2023-04-05T14:18:25.477Z,5.40
2023-04-05T14:20:56.546Z,4.20
2023-04-05T14:23:27.073Z,11.10
2023-04-05T14:25:55.388Z,6.40
2023-04-05T14:28:23.294Z,6.60
2023-04-05T14:30:51.626Z,13.30
2023-04-05T14:33:19.512Z,9.00
2023-04-05T14:36:07.885Z,4.90
2023-04-05T14:38:36.908Z,4.10
2023-04-05T14:41:06.152Z,5.90
2023-04-05T14:43:34.398Z,4.50
2023-04-05T14:46:02.320Z,4.50
2023-04-05T14:48:31.956Z,3.50
2023-04-05T14:51:00.431Z,4.90
2023-04-05T14:53:28.187Z,3.50
2023-04-05T14:55:56.046Z,4.20
2023-04-05T14:58:30.806Z,4.20
2023-04-05T15:00:58.684Z,3.90
2023-04-05T15:03:27.002Z,4.50
2023-04-05T15:05:55.150Z,17.00
2023-04-05T15:08:22.899Z,7.10
2023-04-05T15:10:50.856Z,5.60
2023-04-05T15:13:20.864Z,13.00
2023-04-05T15:15:48.701Z,9.80
2023-04-05T15:18:16.708Z,13.70
2023-04-05T15:20:44.743Z,5.70
2023-04-05T15:23:12.655Z,4.30
2023-04-05T15:25:40.464Z,4.20
2023-04-05T15:28:08.309Z,4.40
2023-04-05T15:30:37.997Z,5.00
2023-04-05T15:33:06.215Z,4.70
2023-04-05T15:35:36.691Z,12.60
2023-04-05T15:38:04.731Z,11.00
2023-04-05T15:40:32.672Z,11.50
2023-04-05T15:43:00.782Z,8.80
2023-04-05T15:45:29.000Z,34.60
2023-04-05T15:47:57.114Z,10.70
2023-04-05T15:50:25.162Z,7.90
2023-04-05T15:52:57.076Z,6.60
2023-04-05T15:55:24.806Z,5.80
2023-04-05T15:57:54.733Z,4.90
2023-04-05T16:00:23.315Z,7.10
2023-04-05T16:02:55.313Z,7.20
2023-04-05T16:05:23.792Z,6.10
2023-04-05T16:07:51.715Z,6.50
2023-04-05T16:10:19.681Z,7.00
2023-04-05T16:12:54.183Z,6.40
2023-04-05T16:15:22.029Z,11.80
2023-04-05T16:17:49.898Z,6.30
2023-04-05T16:20:17.928Z,5.10
2023-04-05T16:22:46.403Z,4.90
2023-04-05T16:25:14.330Z,5.20
2023-04-05T16:27:42.119Z,4.20
2023-04-05T16:30:10.305Z,4.10
2023-04-05T16:32:38.559Z,5.10
2023-04-05T16:35:07.625Z,11.00
2023-04-05T16:37:35.520Z,7.00
2023-04-05T16:40:04.469Z,5.50
2023-04-05T16:42:39.264Z,4.70
2023-04-05T16:45:07.824Z,5.60
2023-04-05T16:47:36.222Z,6.50
2023-04-05T16:50:05.324Z,4.70
2023-04-05T16:52:33.488Z,5.00
2023-04-05T16:55:01.877Z,6.00
2023-04-05T16:57:30.384Z,5.20
2023-04-05T16:59:58.564Z,6.30
2023-04-05T17:02:26.431Z,7.10
2023-04-05T17:04:54.870Z,7.10
2023-04-05T17:07:23.288Z,7.60
2023-04-05T17:09:51.320Z,7.80
2023-04-05T17:12:20.637Z,7.10
2023-04-05T17:14:49.391Z,8.30
2023-04-05T17:17:17.239Z,9.00
2023-04-05T17:19:45.481Z,12.90
2023-04-05T17:22:16.359Z,15.80
2023-04-05T17:24:45.817Z,16.10
2023-04-05T17:27:13.846Z,13.10
2023-04-05T17:29:41.586Z,10.90
2023-04-05T17:32:09.472Z,9.10
2023-04-05T17:34:37.370Z,7.60
2023-04-05T17:37:05.698Z,7.20
2023-04-05T17:39:36.592Z,7.00
2023-04-05T17:42:04.764Z,6.10
2023-04-05T17:44:33.098Z,6.10
2023-04-05T17:47:08.527Z,6.90
2023-04-05T17:49:37.982Z,7.00
2023-04-05T17:52:09.886Z,8.50
2023-04-05T17:54:45.302Z,6.80
2023-04-05T17:57:21.128Z,8.70
2023-04-05T17:59:49.355Z,10.50
2023-04-05T18:02:18.227Z,12.70
2023-04-05T18:04:48.644Z,15.10
2023-04-05T18:07:17.309Z,15.70
2023-04-05T18:09:46.205Z,17.00
2023-04-05T18:12:14.765Z,17.70
2023-04-05T18:14:43.237Z,10.00
2023-04-05T18:17:11.631Z,9.60
2023-04-05T18:19:40.090Z,12.80
2023-04-05T18:22:16.366Z,13.90
2023-04-05T18:24:45.373Z,14.10
2023-04-05T18:27:14.598Z,25.20
2023-04-05T18:29:42.802Z,41.40
2023-04-05T18:32:11.325Z,50.80
2023-04-05T18:34:39.632Z,134.20
2023-04-05T18:37:08.248Z,33.00
2023-04-05T18:39:36.534Z,11.00
2023-04-05T18:42:08.375Z,7.70
2023-04-05T18:44:36.356Z,7.20
2023-04-05T18:47:04.962Z,6.60
2023-04-05T18:49:34.180Z,9.70
2023-04-05T18:52:02.065Z,29.10
2023-04-05T18:54:30.416Z,32.60
2023-04-05T18:56:58.516Z,39.40
2023-04-05T18:59:34.200Z,52.70
2023-04-05T19:02:06.851Z,57.70
2023-04-05T19:04:34.979Z,60.50
2023-04-05T19:07:03.555Z,72.30
2023-04-05T19:09:31.540Z,83.60
2023-04-05T19:11:59.806Z,79.80
2023-04-05T19:14:35.531Z,85.40
2023-04-05T19:17:10.499Z,84.90
2023-04-05T19:19:39.540Z,91.50
2023-04-05T19:22:10.062Z,99.40
2023-04-05T19:24:40.537Z,83.70
2023-04-05T19:27:09.546Z,96.70
2023-04-05T19:29:37.819Z,89.70
2023-04-05T19:32:05.715Z,78.00
2023-04-05T19:34:39.431Z,62.80
2023-04-05T19:37:09.059Z,58.20
2023-04-05T19:39:37.387Z,58.40
2023-04-05T19:42:07.073Z,57.40
2023-04-05T19:44:45.760Z,52.30
2023-04-05T19:47:14.296Z,46.70
2023-04-05T19:49:43.923Z,45.20
2023-04-05T19:52:33.630Z,38.30
2023-04-05T19:55:33.299Z,36.50
2023-04-05T19:58:04.717Z,32.00
2023-04-05T20:00:39.300Z,29.90
2023-04-05T20:03:18.955Z,29.60
2023-04-05T20:05:46.820Z,22.40
2023-04-05T20:08:16.989Z,17.00
2023-04-05T20:10:47.936Z,17.20
2023-04-05T20:13:16.180Z,19.00
2023-04-05T20:15:52.693Z,15.20
2023-04-05T20:18:25.624Z,13.90
2023-04-05T20:20:59.009Z,14.40
2023-04-05T20:23:50.148Z,14.10
2023-04-05T20:26:30.119Z,14.40
2023-04-05T20:29:07.890Z,17.90
2023-04-05T20:31:40.279Z,14.30
2023-04-05T20:34:19.625Z,14.80
2023-04-05T20:36:53.094Z,13.90
2023-04-05T20:39:41.772Z,12.10
2023-04-05T20:42:11.361Z,32.50
2023-04-05T20:44:39.392Z,16.40
2023-04-05T20:47:07.511Z,14.10
2023-04-05T20:49:36.382Z,13.80
2023-04-05T20:52:08.901Z,13.60
2023-04-05T20:54:37.544Z,17.80
2023-04-05T20:57:09.382Z,17.80
2023-04-05T20:59:39.579Z,101.40
2023-04-05T21:02:07.829Z,77.90
2023-04-05T21:04:36.692Z,25.80
2023-04-05T21:07:07.671Z,112.40
2023-04-05T21:09:35.757Z,39.10
2023-04-05T21:12:04.146Z,63.30
2023-04-05T21:14:31.947Z,21.50
2023-04-05T21:16:59.810Z,16.90
2023-04-05T21:19:27.844Z,44.00
2023-04-05T21:21:55.691Z,28.40
2023-04-05T21:24:23.669Z,30.30
2023-04-05T21:26:51.487Z,23.20
2023-04-05T21:29:19.391Z,39.60
2023-04-05T21:31:47.644Z,22.00
2023-04-05T21:34:15.704Z,38.30
2023-04-05T21:36:48.043Z,31.50
2023-04-05T21:39:15.967Z,52.90
2023-04-05T21:41:43.792Z,83.60
2023-04-05T21:44:31.920Z,108.80
2023-04-05T21:47:02.123Z,107.30
2023-04-05T21:49:30.089Z,104.90
2023-04-05T21:51:57.935Z,85.40
2023-04-05T21:54:25.723Z,89.70
2023-04-05T21:56:53.481Z,88.40
2023-04-05T21:59:21.280Z,58.30
2023-04-05T22:01:49.719Z,78.30
2023-04-05T22:04:17.592Z,83.50
2023-04-05T22:06:45.458Z,64.40
2023-04-05T22:09:13.191Z,32.20
2023-04-05T22:11:44.964Z,17.90
2023-04-05T22:14:13.001Z,18.60
2023-04-05T22:16:41.112Z,16.60
2023-04-05T22:19:11.858Z,16.50
2023-04-05T22:21:41.139Z,19.90
2023-04-05T22:24:10.195Z,22.60
2023-04-05T22:26:39.545Z,22.00
2023-04-05T22:29:07.993Z,21.80
2023-04-05T22:31:36.262Z,17.60
2023-04-05T22:34:04.272Z,13.10
2023-04-05T22:36:32.046Z,10.30
2023-04-05T22:38:59.927Z,11.20
2023-04-05T22:41:27.657Z,9.30
2023-04-05T22:43:55.588Z,9.20
2023-04-05T22:46:27.331Z,10.40
2023-04-05T22:48:55.321Z,12.90
2023-04-05T22:51:23.275Z,12.20
2023-04-05T22:53:51.166Z,14.70
2023-04-05T22:56:21.519Z,10.20
2023-04-05T22:58:49.642Z,8.70
2023-04-05T23:01:24.105Z,7.80
2023-04-05T23:03:51.967Z,8.10
2023-04-05T23:06:19.796Z,17.00
2023-04-05T23:08:47.584Z,12.40
2023-04-05T23:11:15.521Z,9.20
2023-04-05T23:13:43.335Z,9.70
2023-04-05T23:16:11.181Z,8.80
2023-04-05T23:18:39.213Z,9.40
2023-04-05T23:21:07.229Z,9.80
2023-04-05T23:23:35.117Z,10.70
2023-04-05T23:28:40.867Z,12.50
2023-04-05T23:31:08.811Z,12.70
2023-04-05T23:33:36.536Z,11.80
2023-04-05T23:36:04.683Z,10.20
2023-04-05T23:38:32.730Z,11.00
2023-04-05T23:41:00.705Z,12.30
2023-04-05T23:43:28.600Z,12.50
2023-04-05T23:45:56.441Z,13.50
2023-04-05T23:48:24.396Z,13.90
2023-04-05T23:50:52.263Z,13.30
2023-04-05T23:53:20.398Z,13.50
2023-04-05T23:55:49.534Z,13.00
2023-04-05T23:58:17.397Z,14.00
